createdAt,value
2022-09-11T00:00:22.706Z,0.10
2022-09-11T00:01:22.690Z,0.10
2022-09-11T00:02:22.694Z,0.10
2022-09-11T00:03:22.686Z,0.20
2022-09-11T00:04:22.654Z,0.10
2022-09-11T00:05:22.638Z,0.10
2022-09-11T00:06:29.274Z,0.10
2022-09-11T00:07:22.612Z,0.10
2022-09-11T00:08:22.602Z,0.10
2022-09-11T00:10:22.575Z,0.10
2022-09-11T00:11:22.560Z,0.10
2022-09-11T00:12:22.549Z,0.10
2022-09-11T00:13:22.533Z,0.10
2022-09-11T00:14:22.525Z,0.20
2022-09-11T00:15:22.507Z,0.10
2022-09-11T00:16:22.528Z,0.10
2022-09-11T00:17:22.480Z,0.10
2022-09-11T00:18:22.471Z,0.10
2022-09-11T00:19:22.481Z,0.10
2022-09-11T00:21:22.428Z,0.10
2022-09-11T00:22:22.418Z,0.10
2022-09-11T00:23:22.401Z,0.10
2022-09-11T00:24:22.390Z,0.10
2022-09-11T00:25:22.379Z,0.10
2022-09-11T00:26:22.365Z,0.10
2022-09-11T00:27:22.352Z,0.10
2022-09-11T00:28:22.339Z,0.10
2022-09-11T00:29:22.323Z,0.10
2022-09-11T00:30:22.313Z,0.10
2022-09-11T00:32:22.287Z,0.10
2022-09-11T00:33:22.271Z,0.20
2022-09-11T00:34:22.260Z,0.10
2022-09-11T00:35:22.271Z,0.10
2022-09-11T00:36:22.234Z,0.10
2022-09-11T00:37:22.224Z,0.10
2022-09-11T00:38:22.209Z,0.10
2022-09-11T00:39:22.194Z,0.20
2022-09-11T00:40:22.184Z,0.10
2022-09-11T00:41:22.168Z,0.10
2022-09-11T00:43:22.141Z,0.10
2022-09-11T00:44:22.131Z,0.10
2022-09-11T00:45:22.116Z,0.10
2022-09-11T00:46:22.105Z,0.10
2022-09-11T00:47:22.090Z,0.10
2022-09-11T00:48:22.081Z,0.20
2022-09-11T00:49:22.065Z,0.10
2022-09-11T00:50:22.052Z,0.10
2022-09-11T00:51:22.061Z,0.10
2022-09-11T00:52:22.030Z,0.10
2022-09-11T00:54:22.001Z,0.10
2022-09-11T00:55:21.987Z,0.10
2022-09-11T00:56:21.976Z,0.20
2022-09-11T00:57:21.959Z,0.20
2022-09-11T00:58:21.949Z,0.20
2022-09-11T00:59:21.934Z,0.10
2022-09-11T01:00:21.923Z,0.20
2022-09-11T01:01:21.907Z,0.10
2022-09-11T01:02:25.500Z,0.10
2022-09-11T01:03:21.881Z,0.10
2022-09-11T01:05:21.856Z,0.10
2022-09-11T01:06:21.845Z,0.10
2022-09-11T01:07:21.855Z,0.20
2022-09-11T01:08:21.818Z,0.10
2022-09-11T01:09:21.802Z,0.10
2022-09-11T01:10:21.792Z,0.10
2022-09-11T01:11:21.779Z,0.10
2022-09-11T01:12:21.766Z,0.10
2022-09-11T01:13:21.752Z,0.10
2022-09-11T01:14:21.738Z,0.10
2022-09-11T01:16:21.769Z,0.20
2022-09-11T01:17:21.702Z,0.10
2022-09-11T01:18:21.686Z,0.10
2022-09-11T01:19:21.675Z,0.10
2022-09-11T01:20:21.662Z,0.10
2022-09-11T01:21:21.649Z,0.10
2022-09-11T01:22:21.633Z,0.10
2022-09-11T01:23:21.648Z,0.10
2022-09-11T01:24:21.608Z,0.10
2022-09-11T01:25:21.598Z,0.10
2022-09-11T01:27:21.570Z,0.10
2022-09-11T01:28:21.555Z,0.10
2022-09-11T01:29:21.546Z,0.10
2022-09-11T01:30:21.529Z,0.10
2022-09-11T01:31:21.539Z,0.10
2022-09-11T01:32:21.503Z,0.10
2022-09-11T01:33:21.492Z,0.10
2022-09-11T01:34:21.476Z,0.10
2022-09-11T01:35:21.464Z,0.10
2022-09-11T01:36:21.451Z,0.10
2022-09-11T01:38:21.422Z,0.10
2022-09-11T01:39:21.434Z,0.10
2022-09-11T01:40:21.396Z,0.10
2022-09-11T01:41:21.384Z,0.10
2022-09-11T01:42:21.369Z,0.10
2022-09-11T01:43:21.357Z,0.10
2022-09-11T01:44:21.344Z,0.10
2022-09-11T01:45:21.394Z,0.10
2022-09-11T01:46:21.318Z,0.10
2022-09-11T01:47:21.307Z,0.10
2022-09-11T01:49:21.279Z,0.10
2022-09-11T01:50:21.265Z,0.10
2022-09-11T01:51:21.266Z,0.10
2022-09-11T01:52:21.237Z,0.10
2022-09-11T01:53:21.226Z,0.10
2022-09-11T01:54:21.210Z,0.10
2022-09-11T01:55:21.222Z,0.10
2022-09-11T01:56:21.184Z,0.10
2022-09-11T01:57:21.173Z,0.10
2022-09-11T01:58:21.157Z,0.10
2022-09-11T02:00:21.131Z,0.10
2022-09-11T02:01:21.119Z,0.10
2022-09-11T02:02:21.151Z,0.10
2022-09-11T02:03:21.094Z,0.10
2022-09-11T02:04:21.078Z,0.10
2022-09-11T02:05:21.067Z,0.10
2022-09-11T02:06:21.051Z,0.10
2022-09-11T02:07:21.040Z,0.10
2022-09-11T02:08:21.024Z,0.10
2022-09-11T02:09:21.014Z,0.10
2022-09-11T02:11:21.014Z,0.10
2022-09-11T02:12:20.971Z,0.10
2022-09-11T02:13:21.061Z,0.10
2022-09-11T02:14:20.948Z,0.10
2022-09-11T02:15:20.939Z,0.10
2022-09-11T02:16:21.002Z,0.10
2022-09-11T02:17:20.907Z,0.10
2022-09-11T02:18:20.892Z,0.10
2022-09-11T02:19:20.881Z,0.10
2022-09-11T02:20:20.866Z,0.10
2022-09-11T02:22:20.839Z,0.10
2022-09-11T02:23:20.829Z,0.10
2022-09-11T02:24:20.814Z,0.10
2022-09-11T02:25:20.801Z,0.10
2022-09-11T02:26:20.786Z,0.10
2022-09-11T02:27:20.802Z,0.10
2022-09-11T02:28:20.760Z,0.10
2022-09-11T02:29:20.748Z,0.10
2022-09-11T02:30:20.735Z,0.10
2022-09-11T02:31:20.760Z,0.10
2022-09-11T02:34:20.680Z,0.10
2022-09-11T02:35:20.671Z,0.10
2022-09-11T02:36:20.654Z,0.10
2022-09-11T02:37:20.643Z,0.10
2022-09-11T02:38:20.628Z,0.10
2022-09-11T02:39:20.617Z,0.20
2022-09-11T02:40:20.601Z,0.10
2022-09-11T02:41:20.590Z,0.10
2022-09-11T02:42:20.577Z,0.10
2022-09-11T02:44:20.549Z,0.10
2022-09-11T02:45:20.657Z,0.10
2022-09-11T02:46:20.525Z,0.10
2022-09-11T02:47:20.513Z,0.10
2022-09-11T02:48:20.497Z,0.10
2022-09-11T02:49:20.486Z,0.10
2022-09-11T02:50:20.473Z,0.10
2022-09-11T02:51:20.463Z,0.10
2022-09-11T02:52:20.446Z,0.10
2022-09-11T02:53:20.439Z,0.10
2022-09-11T02:55:20.408Z,0.10
2022-09-11T02:56:20.394Z,0.10
2022-09-11T02:57:20.383Z,0.10
2022-09-11T02:58:20.368Z,0.10
2022-09-11T02:59:20.381Z,0.10
2022-09-11T03:00:20.342Z,0.10
2022-09-11T03:01:20.331Z,0.10
2022-09-11T03:02:20.390Z,0.10
2022-09-11T03:03:20.305Z,0.10
2022-09-11T03:04:20.289Z,0.10
2022-09-11T03:06:20.263Z,0.10
2022-09-11T03:07:20.253Z,0.10
2022-09-11T03:08:20.237Z,0.20
2022-09-11T03:09:20.226Z,0.10
2022-09-11T03:10:20.210Z,0.10
2022-09-11T03:11:20.203Z,0.10
2022-09-11T03:12:20.191Z,0.10
2022-09-11T03:13:20.181Z,0.10
2022-09-11T03:14:20.158Z,0.10
2022-09-11T03:15:20.168Z,0.10
2022-09-11T03:17:20.119Z,0.10
2022-09-11T03:18:20.104Z,0.10
2022-09-11T03:19:20.093Z,0.10
2022-09-11T03:20:20.077Z,0.10
2022-09-11T03:21:20.067Z,0.10
2022-09-11T03:22:20.050Z,0.10
2022-09-11T03:23:20.040Z,0.10
2022-09-11T03:24:20.026Z,0.10
2022-09-11T03:25:20.013Z,0.10
2022-09-11T03:26:19.999Z,0.10
2022-09-11T03:28:19.972Z,0.10
2022-09-11T03:29:19.961Z,0.10
2022-09-11T03:30:19.944Z,0.10
2022-09-11T03:31:19.994Z,0.10
2022-09-11T03:32:19.919Z,0.10
2022-09-11T03:33:19.909Z,0.10
2022-09-11T03:34:19.903Z,0.10
2022-09-11T03:35:19.881Z,0.20
2022-09-11T03:36:19.867Z,0.10
2022-09-11T03:37:19.855Z,0.10
2022-09-11T03:39:19.830Z,0.20
2022-09-11T03:40:19.815Z,0.20
2022-09-11T03:41:19.805Z,0.20
2022-09-11T03:42:19.789Z,0.20
2022-09-11T03:43:19.776Z,0.20
2022-09-11T03:44:19.760Z,0.10
2022-09-11T03:45:19.749Z,0.10
2022-09-11T03:46:19.734Z,0.10
2022-09-11T03:47:19.747Z,0.10
2022-09-11T03:48:19.706Z,0.10
2022-09-11T03:50:19.682Z,0.10
2022-09-11T03:51:19.669Z,0.10
2022-09-11T03:52:19.654Z,0.10
2022-09-11T03:53:19.645Z,0.10
2022-09-11T03:54:19.628Z,0.10
2022-09-11T03:55:19.616Z,0.10
2022-09-11T03:56:19.601Z,0.10
2022-09-11T03:57:19.590Z,0.10
2022-09-11T03:58:19.575Z,0.10
2022-09-11T03:59:19.564Z,0.10
2022-09-11T04:01:19.588Z,0.10
2022-09-11T04:02:19.556Z,0.10
2022-09-11T04:03:19.533Z,0.10
2022-09-11T04:04:19.495Z,0.10
2022-09-11T04:05:19.483Z,0.10
2022-09-11T04:06:19.468Z,0.10
2022-09-11T04:07:19.457Z,0.10
2022-09-11T04:08:19.442Z,0.10
2022-09-11T04:09:19.431Z,0.10
2022-09-11T04:10:19.416Z,0.10
2022-09-11T04:12:19.390Z,0.10
2022-09-11T04:13:19.378Z,0.10
2022-09-11T04:14:19.362Z,0.10
2022-09-11T04:15:19.351Z,0.10
2022-09-11T04:16:19.410Z,0.10
2022-09-11T04:17:19.324Z,0.10
2022-09-11T04:18:19.310Z,0.10
2022-09-11T04:19:19.322Z,0.10
2022-09-11T04:20:19.285Z,0.10
2022-09-11T04:21:19.275Z,0.10
2022-09-11T04:23:19.244Z,0.10
2022-09-11T04:24:19.231Z,0.10
2022-09-11T04:25:19.219Z,0.10
2022-09-11T04:26:19.204Z,0.10
2022-09-11T04:27:19.193Z,0.10
2022-09-11T04:28:19.179Z,0.10
2022-09-11T04:29:19.167Z,0.10
2022-09-11T04:30:19.152Z,0.10
2022-09-11T04:31:19.200Z,0.10
2022-09-11T04:32:19.138Z,0.10
2022-09-11T04:34:19.099Z,0.10
2022-09-11T04:35:19.112Z,0.10
2022-09-11T04:36:19.080Z,0.10
2022-09-11T04:37:19.063Z,0.10
2022-09-11T04:38:19.048Z,0.10
2022-09-11T04:39:19.034Z,0.10
2022-09-11T04:40:19.020Z,0.10
2022-09-11T04:41:19.007Z,0.10
2022-09-11T04:42:19.004Z,0.10
2022-09-11T04:43:18.981Z,0.10
2022-09-11T04:45:18.954Z,0.10
2022-09-11T04:46:18.939Z,0.10
2022-09-11T04:47:18.927Z,0.10
2022-09-11T04:48:18.912Z,0.10
2022-09-11T04:49:18.902Z,0.10
2022-09-11T04:50:18.886Z,0.10
2022-09-11T04:51:18.907Z,0.00
2022-09-11T04:52:18.860Z,0.10
2022-09-11T04:53:18.847Z,0.10
2022-09-11T04:54:18.833Z,0.10
2022-09-11T04:56:18.807Z,0.10
2022-09-11T04:57:18.794Z,0.10
2022-09-11T04:58:18.780Z,0.10
2022-09-11T04:59:18.768Z,0.10
2022-09-11T05:00:18.754Z,0.10
2022-09-11T05:01:18.767Z,14.80
2022-09-11T05:02:18.783Z,0.20
2022-09-11T05:03:18.717Z,0.20
2022-09-11T05:04:21.731Z,0.10
2022-09-11T05:05:18.688Z,0.10
2022-09-11T05:07:18.685Z,0.20
2022-09-11T05:08:18.677Z,0.10
2022-09-11T05:09:18.638Z,0.20
2022-09-11T05:10:18.623Z,0.20
2022-09-11T05:11:18.611Z,14.69
2022-09-11T05:12:18.596Z,0.10
2022-09-11T05:13:18.585Z,0.10
2022-09-11T05:14:18.611Z,0.10
2022-09-11T05:15:18.559Z,0.10
2022-09-11T05:16:18.590Z,0.20
2022-09-11T05:18:18.520Z,5.69
2022-09-11T05:19:18.509Z,0.10
2022-09-11T05:20:18.492Z,0.10
2022-09-11T05:21:18.482Z,0.10
2022-09-11T05:22:18.518Z,26.60
2022-09-11T05:23:18.477Z,0.10
2022-09-11T05:24:18.442Z,0.10
2022-09-11T05:25:18.429Z,0.20
2022-09-11T05:26:18.414Z,0.20
2022-09-11T05:27:18.403Z,0.10
2022-09-11T05:29:18.376Z,8.39
2022-09-11T05:30:18.362Z,8.50
2022-09-11T05:31:18.405Z,8.50
2022-09-11T05:32:18.335Z,8.39
2022-09-11T05:33:18.322Z,67.90
2022-09-11T05:34:18.310Z,66.80
2022-09-11T05:35:18.295Z,65.50
2022-09-11T05:36:18.283Z,64.50
2022-09-11T05:37:18.271Z,65.00
2022-09-11T05:40:18.234Z,61.09
2022-09-11T05:41:18.217Z,60.70
2022-09-11T05:42:18.204Z,59.70
2022-09-11T05:43:18.191Z,58.20
2022-09-11T05:44:18.179Z,56.29
2022-09-11T05:45:18.165Z,53.79
2022-09-11T05:46:18.153Z,53.70
2022-09-11T05:47:18.140Z,49.40
2022-09-11T05:48:18.126Z,47.79
2022-09-11T05:49:18.112Z,46.29
2022-09-11T05:51:18.086Z,44.09
2022-09-11T05:52:18.074Z,42.79
2022-09-11T05:53:18.066Z,42.50
2022-09-11T05:54:18.048Z,42.70
2022-09-11T05:55:18.055Z,43.00
2022-09-11T05:56:18.024Z,43.50
2022-09-11T05:57:18.024Z,43.70
2022-09-11T05:58:17.996Z,44.40
2022-09-11T05:59:17.983Z,44.79
2022-09-11T06:00:17.973Z,45.40
2022-09-11T06:02:17.993Z,47.29
2022-09-11T06:03:17.931Z,50.40
2022-09-11T06:04:17.918Z,49.09
2022-09-11T06:05:17.904Z,48.09
2022-09-11T06:06:17.895Z,47.79
2022-09-11T06:07:17.879Z,49.29
2022-09-11T06:08:17.866Z,46.90
2022-09-11T06:09:17.852Z,46.79
2022-09-11T06:10:17.841Z,48.90
2022-09-11T06:11:17.848Z,47.09
2022-09-11T06:13:17.804Z,54.00
2022-09-11T06:14:17.787Z,55.00
2022-09-11T06:15:42.914Z,58.50
2022-09-11T06:16:18.751Z,67.09
2022-09-11T06:17:17.747Z,77.69
2022-09-11T06:18:17.735Z,72.69
2022-09-11T06:19:17.721Z,64.69
2022-09-11T06:20:17.709Z,65.69
2022-09-11T06:21:17.695Z,61.40
2022-09-11T06:22:17.683Z,56.40
2022-09-11T06:24:17.659Z,56.59
2022-09-11T06:25:17.647Z,58.40
2022-09-11T06:26:17.633Z,58.40
2022-09-11T06:27:17.643Z,54.59
2022-09-11T06:28:17.609Z,48.70
2022-09-11T06:29:17.596Z,48.20
2022-09-11T06:30:17.585Z,49.90
2022-09-11T06:31:17.575Z,60.00
2022-09-11T06:32:17.561Z,63.00
2022-09-11T06:33:17.546Z,69.50
2022-09-11T06:35:17.520Z,76.30
2022-09-11T06:36:17.508Z,78.59
2022-09-11T06:37:17.492Z,78.40
2022-09-11T06:38:17.479Z,75.69
2022-09-11T06:39:17.467Z,75.30
2022-09-11T06:40:17.454Z,73.09
2022-09-11T06:41:17.441Z,70.40
2022-09-11T06:42:17.428Z,71.90
2022-09-11T06:43:17.438Z,69.80
2022-09-11T06:44:17.403Z,73.40
2022-09-11T06:46:17.379Z,77.69
2022-09-11T06:47:17.367Z,75.09
2022-09-11T06:48:17.353Z,74.00
2022-09-11T06:49:17.338Z,76.09
2022-09-11T06:50:17.326Z,72.90
2022-09-11T06:51:17.311Z,67.59
2022-09-11T06:52:17.305Z,70.69
2022-09-11T06:53:17.285Z,75.00
2022-09-11T06:54:17.276Z,77.80
2022-09-11T06:55:17.262Z,73.50
2022-09-11T06:57:17.235Z,74.30
2022-09-11T06:58:17.224Z,70.69
2022-09-11T06:59:17.235Z,76.90
2022-09-11T07:00:17.200Z,81.80
2022-09-11T07:01:17.388Z,87.50
2022-09-11T07:02:17.218Z,83.90
2022-09-11T07:03:17.161Z,87.09
2022-09-11T07:04:17.152Z,84.19
2022-09-11T07:05:17.137Z,81.09
2022-09-11T07:06:17.129Z,79.90
2022-09-11T07:08:18.301Z,79.50
2022-09-11T07:09:17.085Z,75.59
2022-09-11T07:10:17.072Z,73.50
2022-09-11T07:11:17.057Z,74.80
2022-09-11T07:12:17.044Z,78.00
2022-09-11T07:13:17.033Z,76.59
2022-09-11T07:14:17.019Z,72.09
2022-09-11T07:15:17.025Z,70.80
2022-09-11T07:16:17.167Z,77.00
2022-09-11T07:17:16.978Z,72.00
2022-09-11T07:19:16.953Z,83.30
2022-09-11T07:20:16.942Z,83.09
2022-09-11T07:21:16.927Z,82.80
2022-09-11T07:22:16.917Z,83.19
2022-09-11T07:23:16.902Z,86.00
2022-09-11T07:24:16.890Z,87.50
2022-09-11T07:25:16.876Z,87.30
2022-09-11T07:26:16.865Z,87.09
2022-09-11T07:27:16.852Z,87.19
2022-09-11T07:28:16.841Z,87.69
2022-09-11T07:30:16.816Z,88.40
2022-09-11T07:31:20.626Z,73.90
2022-09-11T07:32:16.795Z,73.90
2022-09-11T07:33:16.777Z,74.69
2022-09-11T07:34:16.766Z,76.80
2022-09-11T07:35:16.752Z,70.09
2022-09-11T07:36:16.742Z,69.00
2022-09-11T07:37:16.729Z,75.80
2022-09-11T07:38:16.718Z,70.19
2022-09-11T07:39:16.705Z,55.09
2022-09-11T07:41:16.691Z,41.90
2022-09-11T07:42:16.668Z,42.79
2022-09-11T07:43:16.655Z,43.90
2022-09-11T07:44:16.645Z,44.50
2022-09-11T07:45:20.857Z,45.50
2022-09-11T07:46:16.617Z,45.79
2022-09-11T07:47:16.629Z,46.59
2022-09-11T07:48:16.592Z,47.40
2022-09-11T07:49:16.576Z,52.70
2022-09-11T07:50:16.566Z,56.40
2022-09-11T07:52:17.040Z,75.50
2022-09-11T07:53:16.525Z,83.90
2022-09-11T07:54:16.514Z,80.00
2022-09-11T07:55:16.506Z,84.19
2022-09-11T07:56:16.488Z,83.69
2022-09-11T07:57:16.476Z,86.80
2022-09-11T07:58:16.466Z,86.50
2022-09-11T07:59:16.450Z,87.69
2022-09-11T08:00:16.437Z,87.69
2022-09-11T08:01:16.446Z,84.00
2022-09-11T08:03:16.427Z,82.69
2022-09-11T08:04:16.387Z,76.30
2022-09-11T08:05:16.372Z,75.69
2022-09-11T08:06:21.385Z,90.69
2022-09-11T08:07:16.345Z,86.69
2022-09-11T08:08:16.334Z,82.90
2022-09-11T08:09:16.323Z,77.80
2022-09-11T08:10:27.282Z,75.30
2022-09-11T08:11:18.296Z,77.19
2022-09-11T08:12:16.285Z,77.69
2022-09-11T08:14:16.260Z,71.90
2022-09-11T08:15:16.247Z,78.00
2022-09-11T08:16:16.302Z,75.00
2022-09-11T08:17:16.222Z,70.80
2022-09-11T08:18:16.215Z,75.40
2022-09-11T08:19:16.220Z,78.09
2022-09-11T08:20:16.184Z,86.00
2022-09-11T08:21:16.171Z,92.50
2022-09-11T08:22:16.160Z,74.80
2022-09-11T08:23:16.146Z,60.00
2022-09-11T08:25:16.123Z,63.20
2022-09-11T08:26:16.115Z,68.00
2022-09-11T08:27:16.096Z,68.59
2022-09-11T08:28:16.084Z,72.00
2022-09-11T08:29:16.070Z,75.30
2022-09-11T08:30:16.058Z,74.30
2022-09-11T08:31:16.115Z,70.59
2022-09-11T08:32:16.032Z,76.00
2022-09-11T08:33:16.018Z,84.69
2022-09-11T08:34:16.006Z,78.40
2022-09-11T08:36:15.983Z,82.69
2022-09-11T08:37:15.969Z,81.30
2022-09-11T08:38:15.956Z,74.69
2022-09-11T08:39:15.941Z,78.59
2022-09-11T08:40:15.962Z,64.90
2022-09-11T08:41:15.917Z,68.69
2022-09-11T08:42:15.907Z,78.59
2022-09-11T08:43:15.892Z,73.59
2022-09-11T08:44:15.881Z,63.79
2022-09-11T08:45:15.866Z,77.59
2022-09-11T08:47:15.842Z,74.09
2022-09-11T08:48:15.833Z,72.90
2022-09-11T08:49:15.816Z,67.50
2022-09-11T08:50:15.808Z,66.09
2022-09-11T08:51:15.821Z,64.59
2022-09-11T08:52:15.785Z,63.59
2022-09-11T08:53:15.767Z,65.69
2022-09-11T08:54:15.757Z,66.40
2022-09-11T08:55:15.743Z,65.30
2022-09-11T08:56:15.731Z,74.50
2022-09-11T08:58:15.711Z,59.29
2022-09-11T08:59:15.697Z,57.50
2022-09-11T09:00:15.682Z,59.20
2022-09-11T09:01:15.724Z,58.59
2022-09-11T09:02:15.827Z,56.79
2022-09-11T09:03:15.644Z,56.09
2022-09-11T09:04:15.634Z,55.59
2022-09-11T09:05:15.618Z,55.90
2022-09-11T09:06:15.615Z,55.50
2022-09-11T09:07:15.617Z,55.50
2022-09-11T09:09:15.570Z,57.00
2022-09-11T09:10:15.561Z,58.09
2022-09-11T09:11:15.546Z,53.20
2022-09-11T09:12:15.535Z,53.09
2022-09-11T09:13:15.521Z,54.70
2022-09-11T09:14:15.510Z,54.79
2022-09-11T09:15:15.497Z,57.90
2022-09-11T09:16:15.510Z,61.29
2022-09-11T09:17:15.472Z,55.79
2022-09-11T09:18:15.462Z,46.79
2022-09-11T09:20:15.437Z,45.20
2022-09-11T09:21:15.425Z,47.79
2022-09-11T09:22:15.413Z,51.29
2022-09-11T09:23:15.426Z,52.00
2022-09-11T09:24:15.389Z,57.20
2022-09-11T09:25:15.376Z,54.79
2022-09-11T09:26:15.368Z,52.00
2022-09-11T09:27:15.350Z,51.29
2022-09-11T09:28:15.340Z,44.70
2022-09-11T09:29:15.327Z,46.59
2022-09-11T09:31:15.334Z,51.40
2022-09-11T09:32:15.293Z,43.90
2022-09-11T09:33:15.282Z,42.29
2022-09-11T09:34:15.274Z,43.09
2022-09-11T09:35:15.255Z,42.20
2022-09-11T09:36:15.244Z,44.50
2022-09-11T09:37:15.230Z,47.09
2022-09-11T09:38:18.486Z,36.59
2022-09-11T09:39:15.228Z,32.90
2022-09-11T09:40:15.236Z,39.70
2022-09-11T09:42:15.172Z,42.79
2022-09-11T09:43:15.158Z,39.79
2022-09-11T09:44:19.029Z,40.20
2022-09-11T09:45:15.134Z,39.00
2022-09-11T09:46:15.188Z,40.59
2022-09-11T09:47:15.107Z,40.79
2022-09-11T09:48:15.096Z,39.70
2022-09-11T09:49:15.084Z,43.00
2022-09-11T09:50:15.072Z,41.79
2022-09-11T09:51:15.060Z,41.90
2022-09-11T09:53:15.036Z,37.90
2022-09-11T09:54:15.023Z,38.50
2022-09-11T09:55:15.034Z,40.79
2022-09-11T09:56:14.999Z,40.20
2022-09-11T09:57:14.988Z,36.09
2022-09-11T09:58:14.981Z,35.70
2022-09-11T09:59:14.963Z,33.20
2022-09-11T10:00:14.950Z,31.89
2022-09-11T10:01:17.960Z,38.20
2022-09-11T10:02:14.949Z,30.20
2022-09-11T10:04:14.902Z,29.60
2022-09-11T10:05:14.893Z,28.39
2022-09-11T10:06:14.877Z,29.10
2022-09-11T10:07:14.866Z,29.20
2022-09-11T10:08:14.852Z,27.89
2022-09-11T10:09:14.843Z,29.39
2022-09-11T10:10:14.829Z,32.40
2022-09-11T10:11:14.840Z,41.40
2022-09-11T10:12:14.806Z,33.59
2022-09-11T10:13:19.411Z,34.09
2022-09-11T10:15:14.767Z,33.40
2022-09-11T10:16:14.777Z,33.79
2022-09-11T10:17:14.743Z,33.29
2022-09-11T10:18:14.730Z,32.29
2022-09-11T10:19:14.719Z,31.00
2022-09-11T10:20:14.705Z,33.00
2022-09-11T10:21:14.695Z,32.79
2022-09-11T10:22:14.681Z,31.89
2022-09-11T10:23:14.672Z,32.59
2022-09-11T10:24:14.656Z,31.29
2022-09-11T10:26:14.631Z,29.50
2022-09-11T10:27:17.634Z,30.89
2022-09-11T10:28:14.606Z,33.50
2022-09-11T10:29:14.597Z,39.00
2022-09-11T10:30:14.585Z,26.60
2022-09-11T10:31:14.591Z,25.29
2022-09-11T10:32:14.557Z,23.79
2022-09-11T10:33:14.547Z,23.89
2022-09-11T10:34:14.532Z,23.50
2022-09-11T10:35:14.522Z,26.60
2022-09-11T10:37:14.498Z,23.50
2022-09-11T10:38:14.483Z,22.20
2022-09-11T10:39:14.471Z,23.79
2022-09-11T10:40:14.562Z,25.70
2022-09-11T10:41:14.448Z,32.70
2022-09-11T10:42:14.432Z,27.20
2022-09-11T10:43:14.445Z,30.89
2022-09-11T10:44:14.411Z,31.20
2022-09-11T10:45:14.396Z,32.40
2022-09-11T10:46:14.420Z,29.39
2022-09-11T10:48:14.358Z,30.89
2022-09-11T10:49:14.348Z,30.29
2022-09-11T10:50:14.384Z,30.20
2022-09-11T10:51:14.321Z,29.89
2022-09-11T10:52:14.309Z,27.79
2022-09-11T10:53:14.298Z,24.70
2022-09-11T10:54:14.289Z,24.39
2022-09-11T10:55:14.274Z,27.39
2022-09-11T10:56:14.259Z,29.00
2022-09-11T10:57:14.248Z,30.70
2022-09-11T10:59:14.248Z,26.70
2022-09-11T11:00:14.272Z,26.39
2022-09-11T11:01:14.301Z,26.50
2022-09-11T11:02:14.224Z,29.39
2022-09-11T11:03:14.175Z,29.39
2022-09-11T11:04:14.165Z,29.70
2022-09-11T11:05:14.155Z,30.50
2022-09-11T11:06:14.142Z,27.00
2022-09-11T11:07:14.132Z,29.60
2022-09-11T11:08:14.119Z,27.70
2022-09-11T11:10:14.095Z,27.50
2022-09-11T11:11:14.084Z,29.60
2022-09-11T11:12:14.072Z,30.00
2022-09-11T11:13:14.061Z,29.10
2022-09-11T11:14:14.052Z,29.70
2022-09-11T11:15:14.063Z,29.29
2022-09-11T11:16:14.123Z,28.20
2022-09-11T11:17:14.015Z,28.39
2022-09-11T11:18:14.008Z,24.79
2022-09-11T11:19:13.993Z,24.70
2022-09-11T11:21:13.970Z,29.00
2022-09-11T11:22:13.954Z,28.50
2022-09-11T11:23:16.522Z,27.70
2022-09-11T11:24:13.931Z,30.20
2022-09-11T11:25:13.921Z,29.70
2022-09-11T11:26:13.909Z,31.00
2022-09-11T11:27:13.899Z,29.39
2022-09-11T11:28:13.885Z,29.00
2022-09-11T11:29:13.876Z,29.89
2022-09-11T11:30:13.862Z,30.29
2022-09-11T11:32:13.839Z,28.60
2022-09-11T11:33:13.830Z,26.10
2022-09-11T11:34:13.818Z,29.50
2022-09-11T11:35:13.809Z,28.89
2022-09-11T11:36:13.798Z,29.39
2022-09-11T11:37:13.783Z,30.89
2022-09-11T11:38:13.770Z,31.10
2022-09-11T11:39:13.761Z,29.70
2022-09-11T11:40:13.903Z,29.10
2022-09-11T11:41:13.739Z,27.89
2022-09-11T11:43:13.715Z,29.70
2022-09-11T11:44:13.704Z,29.10
2022-09-11T11:45:13.695Z,29.29
2022-09-11T11:46:13.726Z,29.89
2022-09-11T11:47:13.694Z,31.70
2022-09-11T11:48:13.659Z,29.89
2022-09-11T11:49:13.647Z,29.50
2022-09-11T11:50:13.637Z,30.79
2022-09-11T11:51:13.624Z,27.89
2022-09-11T11:52:13.612Z,27.79
2022-09-11T11:54:13.587Z,29.20
2022-09-11T11:55:13.579Z,28.79
2022-09-11T11:56:13.566Z,29.89
2022-09-11T11:57:13.557Z,28.89
2022-09-11T11:58:13.560Z,28.60
2022-09-11T11:59:13.534Z,29.20
2022-09-11T12:00:13.522Z,29.10
2022-09-11T12:01:13.511Z,25.89
2022-09-11T12:02:13.528Z,27.79
2022-09-11T12:03:13.546Z,26.70
2022-09-11T12:05:13.465Z,30.00
2022-09-11T12:06:13.453Z,25.79
2022-09-11T12:07:13.444Z,26.70
2022-09-11T12:08:13.430Z,27.89
2022-09-11T12:09:13.419Z,24.89
2022-09-11T12:10:13.409Z,25.00
2022-09-11T12:11:13.399Z,24.70
2022-09-11T12:12:13.387Z,25.89
2022-09-11T12:13:13.376Z,24.29
2022-09-11T12:14:13.361Z,22.89
2022-09-11T12:16:13.384Z,24.29
2022-09-11T12:17:13.327Z,25.00
2022-09-11T12:18:13.314Z,24.39
2022-09-11T12:19:13.325Z,23.10
2022-09-11T12:20:13.484Z,23.79
2022-09-11T12:21:13.278Z,23.20
2022-09-11T12:22:13.269Z,24.10
2022-09-11T12:23:13.253Z,23.89
2022-09-11T12:24:13.241Z,24.10
2022-09-11T12:25:13.230Z,23.89
2022-09-11T12:27:13.209Z,23.79
2022-09-11T12:28:13.198Z,23.10
2022-09-11T12:29:13.187Z,23.79
2022-09-11T12:30:13.175Z,22.29
2022-09-11T12:31:13.224Z,21.20
2022-09-11T12:32:13.153Z,20.50
2022-09-11T12:33:13.142Z,23.00
2022-09-11T12:34:13.130Z,22.60
2022-09-11T12:35:13.142Z,22.20
2022-09-11T12:36:13.106Z,22.60
2022-09-11T12:38:13.085Z,22.29
2022-09-11T12:39:13.074Z,24.29
2022-09-11T12:40:13.107Z,24.29
2022-09-11T12:41:13.058Z,25.79
2022-09-11T12:42:13.035Z,24.89
2022-09-11T12:43:13.025Z,22.89
2022-09-11T12:44:13.013Z,23.10
2022-09-11T12:45:12.999Z,23.20
2022-09-11T12:46:12.986Z,23.00
2022-09-11T12:47:12.975Z,22.79
2022-09-11T12:49:23.976Z,22.20
2022-09-11T12:50:14.940Z,22.60
2022-09-11T12:51:12.955Z,22.00
2022-09-11T12:52:12.916Z,23.29
2022-09-11T12:53:12.908Z,23.70
2022-09-11T12:54:12.896Z,24.20
2022-09-11T12:55:12.886Z,23.70
2022-09-11T12:56:12.875Z,23.79
2022-09-11T12:57:12.868Z,22.89
2022-09-11T12:58:12.847Z,22.50
2022-09-11T13:00:12.823Z,22.89
2022-09-11T13:01:12.839Z,21.20
2022-09-11T13:02:12.895Z,20.89
2022-09-11T13:03:12.787Z,20.10
2022-09-11T13:04:12.775Z,18.70
2022-09-11T13:05:12.766Z,17.29
2022-09-11T13:06:12.751Z,16.50
2022-09-11T13:07:12.766Z,15.60
2022-09-11T13:08:12.727Z,15.69
2022-09-11T13:09:12.718Z,16.50
2022-09-11T13:11:15.389Z,20.70
2022-09-11T13:12:12.679Z,20.10
2022-09-11T13:13:12.670Z,20.79
2022-09-11T13:14:12.656Z,21.10
2022-09-11T13:15:12.646Z,21.10
2022-09-11T13:16:12.675Z,20.39
2022-09-11T13:17:12.621Z,21.00
2022-09-11T13:18:12.610Z,20.39
2022-09-11T13:19:12.600Z,19.70
2022-09-11T13:20:12.584Z,20.50
2022-09-11T13:22:12.561Z,20.60
2022-09-11T13:23:12.575Z,20.10
2022-09-11T13:24:12.538Z,19.79
2022-09-11T13:25:12.525Z,19.60
2022-09-11T13:26:12.513Z,19.70
2022-09-11T13:27:12.502Z,19.29
2022-09-11T13:28:16.640Z,19.39
2022-09-11T13:29:14.477Z,18.79
2022-09-11T13:30:12.463Z,18.60
2022-09-11T13:31:12.509Z,19.10
2022-09-11T13:33:12.431Z,18.50
2022-09-11T13:34:12.417Z,19.20
2022-09-11T13:35:12.406Z,20.29
2022-09-11T13:36:12.393Z,19.10
2022-09-11T13:37:12.382Z,20.50
2022-09-11T13:38:12.371Z,20.39
2022-09-11T13:39:12.381Z,19.39
2022-09-11T13:40:12.361Z,20.00
2022-09-11T13:41:12.336Z,19.89
2022-09-11T13:42:12.321Z,19.39
2022-09-11T13:44:12.297Z,18.50
2022-09-11T13:45:12.286Z,19.20
2022-09-11T13:46:12.272Z,19.20
2022-09-11T13:47:12.262Z,18.50
2022-09-11T13:48:12.248Z,18.39
2022-09-11T13:49:12.240Z,19.00
2022-09-11T13:50:12.225Z,19.79
2022-09-11T13:51:12.214Z,20.00
2022-09-11T13:52:12.201Z,9.39
2022-09-11T13:53:12.192Z,7.40
2022-09-11T13:55:12.192Z,11.19
2022-09-11T13:56:12.153Z,10.39
2022-09-11T13:57:12.142Z,9.30
2022-09-11T13:58:12.128Z,11.19
2022-09-11T13:59:12.117Z,16.79
2022-09-11T14:00:12.104Z,14.69
2022-09-11T14:01:12.093Z,17.79
2022-09-11T14:02:12.133Z,14.30
2022-09-11T14:03:12.070Z,14.00
2022-09-11T14:04:12.055Z,14.89
2022-09-11T14:06:12.031Z,15.60
2022-09-11T14:07:12.020Z,15.69
2022-09-11T14:08:12.010Z,15.60
2022-09-11T14:09:11.995Z,15.69
2022-09-11T14:10:11.984Z,15.00
2022-09-11T14:11:11.996Z,15.19
2022-09-11T14:12:11.961Z,15.39
2022-09-11T14:13:11.950Z,15.39
2022-09-11T14:14:11.938Z,15.00
2022-09-11T14:15:11.925Z,15.19
2022-09-11T14:17:11.900Z,15.80
2022-09-11T14:18:11.890Z,15.89
2022-09-11T14:19:11.877Z,14.00
2022-09-11T14:20:11.865Z,6.90
2022-09-11T14:21:11.851Z,5.69
2022-09-11T14:22:11.841Z,4.80